Airfield :
LOGIN :

Register | Disclaimer

   EN    FR    IT 

 










Legend :    VFR   Marginal VFR   IFR   Intensive IFR   Very Intensive IFR
Visi :
Ceiling :
>= 8 km
>= 3000ft
5 to 8 km
1000 to 3000 ft
1500m to 5 km
500 to 1000 ft
800 to 1500m
200 to 500 ft
< 800m
< 200 ft
Symbols :   Thunderstorms  Fog  Heavy snow  Heavy precipitations  Wind > 20 kt
SIGMETs :     Misc.  Thunderstorms  Icing  Turbulence  Mountain Waves  Volcanic Ashes







- Airport Elevation : 779 ft
- IATA code : CMF
- Download approach charts


LFLB - Chambery / Aix-Les-Bains

CURRENT METAR :
  • 250930Z AUTO VRB02KT CAVOK 28/19 Q1020 NOSIG

EXPIRED METARs :
  • 250900Z AUTO 35004KT 320V040 7000 1700 NSC 27/19 Q1020 NOSIG
  • 250830Z AUTO VRB03KT 4200 1700 HZ NSC 26/19 Q1020 BECMG 9999 NSW
  • 250800Z AUTO VRB03KT 9000 0400 R18///// R36/2300D // NSC 25/19 Q1020
  • 250730Z AUTO VRB02KT 5000 2200 BR NSC 25/19 Q1020 NOSIG
  • 250700Z AUTO VRB02KT CAVOK 23/19 Q1020 NOSIG
  • 250630Z AUTO VRB02KT CAVOK 23/19 Q1020 NOSIG

TAF TAF LFLB
Valid from the 25 at 06:00 until the 26 at 06:00 UTC


250500Z 2506/2606 VRB02KT CAVOK
TEMPO 2510/2516 02006KT
No reported NOTAMs for that airfield.



MET'MAP, your aeronautical weather chart ! - Copyright ORBIFLY December 2007 - Disclaimer

ORBIFLY MET'MAP TEAM :

Programming & Development : Alexandra Zaïnal
Concept & Development : Baudouin d'Aumeries
Co-Development & Prog : Marc-Olivier Méhu
Technical & hardware support : Manuel Goepfert

Contact : metmap@orbifly.com




SOURCES & CREDITS :

   NOAA